Birmingham-Shuttlesworth International Airport
KBHM : rendu visible

Aérodrome :











RETROUVEZ-NOUS SUR...

 
LOGIN :

S'inscrire | Disclaimer

   EN    FR    IT 

 









Légende :    VFR   VFR Marginal   IFR   IFR Intensif   IFR Très Intensif
Visi : 
Plafond : 
>= 8 km
>= 3000ft
5 à 8 km
1000 à 3000 ft
1500m à 5 km
500 à 1000 ft
800 à 1500m
200 à 500 ft
< 800m
< 200 ft
Symboles :   Orages  Brouillard  Fortes neiges  Fortes précipitations  Vent > 20 kt






- Altitude de l'aérodrome : 650 ft
- Code IATA : BHM


KBHM - Birmingham-Shuttlesworth International

DERNIER METAR :
  • 200253Z 34012KT 10SM CLR 03/M07 A3035 RMK AO2 SLP280 T00281072 51013

METARs EXPIRÉS :
  • 200153Z 33010KT 10SM CLR 03/M08 A3035 RMK AO2 SLP278 T00331078
  • 200053Z 34010KT 10SM CLR 04/M08 A3033 RMK AO2 SLP273 T00441078

TAF KBHM
Valide du 20 à 00h jusqu'au 21 à 00h UTC


192329Z 2000/2024 33010KT P6SM SKC
FM200400 35010KT P6SM SKC



MET'MAP, la Météo Aéronautique d'un coup d'oeil ! - Copyright ORBIFLY Décembre 2007 - Disclaimer

ORBIFLY MET'MAP TEAM :

Programmation & Développement : Alexandra Zaïnal
Sur une idée originale de : Baudouin d'Aumeries
Assistance à la programmation : Marc-Olivier Méhu
Soutien technique & logistique : Manuel Goepfert

Contact : metmap@orbifly.com




SOURCES & CREDITS :

   NOAA       Earth
Advisory